TimeEDT,TemperatureF,Dew PointF,Humidity,Sea Level PressureIn,VisibilityMPH,Wind Direction,Wind SpeedMPH,Gust SpeedMPH,PrecipitationIn,Events,Conditions,WindDirDegrees,DateUTC
1:54 AM,44.1,41.0,89,30.26,8.0,SSE,5.8,-,N/A,,Clear,150,2013-03-11 05:54:00
2:54 AM,43.0,41.0,93,30.25,8.0,SSE,6.9,-,N/A,,Clear,160,2013-03-11 06:54:00
3:54 AM,41.0,39.9,96,30.24,7.0,SSE,4.6,-,N/A,,Clear,160,2013-03-11 07:54:00
4:54 AM,41.0,41.0,100,30.20,5.0,Variable,3.5,-,N/A,,Clear,0,2013-03-11 08:54:00
5:14 AM,41.0,41.0,100,30.20,5.0,Variable,3.5,-,N/A,,Partly Cloudy,0,2013-03-11 09:14:00
5:27 AM,41.0,39.2,93,30.20,5.0,SSE,5.8,-,N/A,,Mostly Cloudy,150,2013-03-11 09:27:00
5:54 AM,41.0,41.0,100,30.20,5.0,South,5.8,-,N/A,,Overcast,170,2013-03-11 09:54:00
6:54 AM,42.1,42.1,100,30.20,2.5,Variable,3.5,-,N/A,,Overcast,0,2013-03-11 10:54:00
7:22 AM,42.8,42.8,100,30.19,1.2,South,6.9,-,N/A,,Overcast,170,2013-03-11 11:22:00
7:41 AM,42.8,42.8,100,30.20,0.8,South,6.9,-,N/A,,Overcast,180,2013-03-11 11:41:00
7:54 AM,42.1,42.1,100,30.21,0.8,South,8.1,-,N/A,,Overcast,170,2013-03-11 11:54:00
8:10 AM,42.8,42.8,100,30.21,1.0,South,9.2,-,N/A,,Overcast,180,2013-03-11 12:10:00
8:36 AM,42.8,42.8,100,30.22,2.0,South,4.6,-,N/A,,Overcast,190,2013-03-11 12:36:00
8:51 AM,42.8,42.8,100,30.21,3.0,Variable,4.6,-,N/A,,Overcast,0,2013-03-11 12:51:00
8:54 AM,43.0,43.0,100,30.22,3.0,South,5.8,-,N/A,,Overcast,170,2013-03-11 12:54:00
9:39 AM,44.6,44.6,100,30.20,4.0,Variable,4.6,-,N/A,,Overcast,0,2013-03-11 13:39:00
9:54 AM,45.0,44.1,97,30.20,4.0,Variable,4.6,-,N/A,,Overcast,0,2013-03-11 13:54:00
10:41 AM,48.2,44.6,87,30.19,6.0,South,5.8,-,N/A,,Scattered Clouds,180,2013-03-11 14:41:00
10:54 AM,48.9,45.0,86,30.18,6.0,Variable,3.5,-,N/A,,Clear,0,2013-03-11 14:54:00
11:54 AM,54.0,46.0,75,30.17,10.0,SSE,6.9,-,N/A,,Mostly Cloudy,160,2013-03-11 15:54:00
12:54 PM,57.9,48.0,70,30.15,10.0,South,8.1,-,N/A,,Clear,190,2013-03-11 16:54:00
1:54 PM,62.1,48.9,62,30.11,10.0,South,8.1,-,N/A,,Clear,180,2013-03-11 17:54:00
2:54 PM,64.0,48.9,58,30.08,10.0,South,10.4,-,N/A,,Mostly Cloudy,170,2013-03-11 18:54:00
3:54 PM,64.9,48.0,54,30.05,10.0,South,15.0,-,N/A,,Partly Cloudy,180,2013-03-11 19:54:00
4:54 PM,64.9,46.9,52,30.02,10.0,South,9.2,19.6,N/A,,Mostly Cloudy,180,2013-03-11 20:54:00
5:54 PM,64.9,46.0,50,30.01,10.0,SSE,5.8,-,N/A,,Partly Cloudy,150,2013-03-11 21:54:00
6:54 PM,64.0,46.0,52,30.00,10.0,Variable,4.6,-,N/A,,Scattered Clouds,0,2013-03-11 22:54:00
7:54 PM,63.0,46.0,54,29.98,10.0,SE,5.8,-,N/A,,Clear,140,2013-03-11 23:54:00
8:54 PM,62.1,48.0,60,29.99,10.0,SSE,11.5,18.4,N/A,,Clear,160,2013-03-12 00:54:00
9:54 PM,61.0,48.0,62,30.00,10.0,SSE,8.1,16.1,N/A,,Overcast,160,2013-03-12 01:54:00
10:54 PM,60.1,48.0,64,29.99,10.0,SE,9.2,17.3,N/A,,Overcast,140,2013-03-12 02:54:00
11:54 PM,60.1,48.9,67,29.98,10.0,SSE,9.2,19.6,N/A,,Mostly Cloudy,150,2013-03-12 03:54:00